sensor_id;sensor_type;location;lat;lon;timestamp;pressure;altitude;pressure_sealevel;temperature;humidity
8039;BME280;4062;49.844;8.120;2023-03-01T00:01:31;100365.91;;;14.27;53.47
8039;BME280;4062;49.844;8.120;2023-03-01T00:03:33;100365.91;;;14.27;53.42
8039;BME280;4062;49.844;8.120;2023-03-01T00:05:34;100376.50;;;14.29;53.47
8039;BME280;4062;49.844;8.120;2023-03-01T00:07:35;100377.41;;;14.28;53.35
8039;BME280;4062;49.844;8.120;2023-03-01T00:09:37;100373.88;;;14.27;53.68
8039;BME280;4062;49.844;8.120;2023-03-01T00:11:38;100379.22;;;14.27;53.58
8039;BME280;4062;49.844;8.120;2023-03-01T00:13:40;100381.88;;;14.27;53.71
8039;BME280;4062;49.844;8.120;2023-03-01T00:15:41;100386.28;;;14.27;53.60
8039;BME280;4062;49.844;8.120;2023-03-01T00:17:42;100382.78;;;14.26;53.55
8039;BME280;4062;49.844;8.120;2023-03-01T00:19:43;100377.44;;;14.26;53.69
8039;BME280;4062;49.844;8.120;2023-03-01T00:21:44;100380.97;;;14.27;53.63
8039;BME280;4062;49.844;8.120;2023-03-01T00:23:45;100371.25;;;14.26;53.67
8039;BME280;4062;49.844;8.120;2023-03-01T00:25:46;100371.25;;;14.26;53.60
8039;BME280;4062;49.844;8.120;2023-03-01T00:27:47;100367.72;;;14.25;53.55
8039;BME280;4062;49.844;8.120;2023-03-01T00:29:49;100379.22;;;14.26;53.71
8039;BME280;4062;49.844;8.120;2023-03-01T00:31:50;100381.03;;;14.25;53.51
8039;BME280;4062;49.844;8.120;2023-03-01T00:33:56;100374.81;;;14.25;53.69
8039;BME280;4062;49.844;8.120;2023-03-01T00:35:59;100374.81;;;14.25;53.61
8039;BME280;4062;49.844;8.120;2023-03-01T00:38:00;100378.38;;;14.23;53.75
8039;BME280;4062;49.844;8.120;2023-03-01T00:40:01;100375.69;;;14.25;53.61
8039;BME280;4062;49.844;8.120;2023-03-01T00:42:06;100379.25;;;14.24;53.50
8039;BME280;4062;49.844;8.120;2023-03-01T00:44:09;100369.50;;;14.25;53.56
8039;BME280;4062;49.844;8.120;2023-03-01T00:46:16;100366.84;;;14.25;53.36
8039;BME280;4062;49.844;8.120;2023-03-01T00:48:18;100369.50;;;14.25;53.48
8039;BME280;4062;49.844;8.120;2023-03-01T00:50:19;100368.63;;;14.24;53.56
8039;BME280;4062;49.844;8.120;2023-03-01T00:52:20;100363.31;;;14.24;53.81
8039;BME280;4062;49.844;8.120;2023-03-01T00:54:21;100363.31;;;14.24;53.69
8039;BME280;4062;49.844;8.120;2023-03-01T00:56:22;100358.00;;;14.24;53.82
8039;BME280;4062;49.844;8.120;2023-03-01T00:58:23;100360.66;;;14.24;53.62
8039;BME280;4062;49.844;8.120;2023-03-01T01:00:25;100363.31;;;14.24;53.56
8039;BME280;4062;49.844;8.120;2023-03-01T01:02:28;100356.25;;;14.23;53.68
8039;BME280;4062;49.844;8.120;2023-03-01T01:04:29;100354.44;;;14.23;53.62
8039;BME280;4062;49.844;8.120;2023-03-01T01:06:35;100360.66;;;14.24;53.58
8039;BME280;4062;49.844;8.120;2023-03-01T01:08:37;100358.00;;;14.24;53.62
8039;BME280;4062;49.844;8.120;2023-03-01T01:10:38;100358.00;;;14.24;53.61
8039;BME280;4062;49.844;8.120;2023-03-01T01:12:39;100354.44;;;14.23;53.63
8039;BME280;4062;49.844;8.120;2023-03-01T01:14:39;100344.72;;;14.24;53.74
8039;BME280;4062;49.844;8.120;2023-03-01T01:16:40;100337.66;;;14.23;53.65
8039;BME280;4062;49.844;8.120;2023-03-01T01:18:41;100330.53;;;14.23;53.56
8039;BME280;4062;49.844;8.120;2023-03-01T01:20:43;100323.44;;;14.24;53.70
8039;BME280;4062;49.844;8.120;2023-03-01T01:22:43;100317.25;;;14.23;53.55
8039;BME280;4062;49.844;8.120;2023-03-01T01:24:45;100316.38;;;14.23;53.55
8039;BME280;4062;49.844;8.120;2023-03-01T01:26:46;100311.94;;;14.23;53.67
8039;BME280;4062;49.844;8.120;2023-03-01T01:28:48;100311.94;;;14.23;53.70
8039;BME280;4062;49.844;8.120;2023-03-01T01:30:48;100309.31;;;14.22;53.61
8039;BME280;4062;49.844;8.120;2023-03-01T01:32:49;100308.41;;;14.23;53.75
8039;BME280;4062;49.844;8.120;2023-03-01T01:34:50;100299.56;;;14.22;53.57
8039;BME280;4062;49.844;8.120;2023-03-01T01:36:53;100297.78;;;14.23;53.52
8039;BME280;4062;49.844;8.120;2023-03-01T01:38:54;100298.69;;;14.22;53.70
8039;BME280;4062;49.844;8.120;2023-03-01T01:40:55;100295.13;;;14.23;53.74
8039;BME280;4062;49.844;8.120;2023-03-01T01:42:56;100297.78;;;14.23;53.76
8039;BME280;4062;49.844;8.120;2023-03-01T01:45:36;100303.09;;;14.23;53.78
8039;BME280;4062;49.844;8.120;2023-03-01T01:47:37;100305.75;;;14.23;53.61
8039;BME280;4062;49.844;8.120;2023-03-01T01:49:48;100296.91;;;14.22;53.59
8039;BME280;4062;49.844;8.120;2023-03-01T01:51:56;100302.22;;;14.22;53.59
8039;BME280;4062;49.844;8.120;2023-03-01T01:54:00;100308.41;;;14.23;53.71
8039;BME280;4062;49.844;8.120;2023-03-01T01:56:01;100295.16;;;14.21;53.55
8039;BME280;4062;49.844;8.120;2023-03-01T01:58:05;100288.94;;;14.22;53.82
8039;BME280;4062;49.844;8.120;2023-03-01T02:00:20;100295.16;;;14.21;53.59
8039;BME280;4062;49.844;8.120;2023-03-01T02:02:21;100296.03;;;14.22;53.78
8039;BME280;4062;49.844;8.120;2023-03-01T02:04:23;100289.84;;;14.21;53.62
8039;BME280;4062;49.844;8.120;2023-03-01T02:06:31;100282.72;;;14.22;53.59
8039;BME280;4062;49.844;8.120;2023-03-01T02:08:39;100273.00;;;14.21;53.63
8039;BME280;4062;49.844;8.120;2023-03-01T02:10:42;100277.41;;;14.22;53.79
8039;BME280;4062;49.844;8.120;2023-03-01T02:12:45;100274.75;;;14.22;53.82
8039;BME280;4062;49.844;8.120;2023-03-01T02:14:46;100273.91;;;14.21;53.63
8039;BME280;4062;49.844;8.120;2023-03-01T02:16:48;100270.34;;;14.21;53.64
8039;BME280;4062;49.844;8.120;2023-03-01T02:18:50;100274.75;;;14.22;53.56
8039;BME280;4062;49.844;8.120;2023-03-01T02:21:03;100274.75;;;14.22;53.77
8039;BME280;4062;49.844;8.120;2023-03-01T02:23:07;100273.91;;;14.21;53.68
8039;BME280;4062;49.844;8.120;2023-03-01T02:25:28;100273.91;;;14.21;53.61
8039;BME280;4062;49.844;8.120;2023-03-01T02:29:53;100273.00;;;14.21;53.60
8039;BME280;4062;49.844;8.120;2023-03-01T02:31:58;100272.16;;;14.20;53.54
8039;BME280;4062;49.844;8.120;2023-03-01T02:34:00;100273.91;;;14.21;53.48
8039;BME280;4062;49.844;8.120;2023-03-01T02:36:17;100273.00;;;14.21;53.54
8039;BME280;4062;49.844;8.120;2023-03-01T02:38:19;100267.69;;;14.21;53.60
8039;BME280;4062;49.844;8.120;2023-03-01T02:40:20;100258.88;;;14.20;53.60
8039;BME280;4062;49.844;8.120;2023-03-01T02:42:26;100256.22;;;14.20;53.56
8039;BME280;4062;49.844;8.120;2023-03-01T02:44:31;100254.41;;;14.21;53.60
8039;BME280;4062;49.844;8.120;2023-03-01T02:46:32;100247.34;;;14.20;53.67
8039;BME280;4062;49.844;8.120;2023-03-01T02:48:42;100256.22;;;14.20;53.45
8039;BME280;4062;49.844;8.120;2023-03-01T02:51:05;100249.09;;;14.21;53.51
8039;BME280;4062;49.844;8.120;2023-03-01T02:53:35;100250.00;;;14.20;53.41
8039;BME280;4062;49.844;8.120;2023-03-01T02:55:39;100240.28;;;14.19;53.51
8039;BME280;4062;49.844;8.120;2023-03-01T02:57:44;100245.56;;;14.20;53.51
8039;BME280;4062;49.844;8.120;2023-03-01T02:59:45;100241.16;;;14.19;53.66
8039;BME280;4062;49.844;8.120;2023-03-01T03:01:46;100236.72;;;14.20;53.51
8039;BME280;4062;49.844;8.120;2023-03-01T03:03:47;100236.72;;;14.20;53.66
8039;BME280;4062;49.844;8.120;2023-03-01T03:05:48;100239.38;;;14.20;53.57
8039;BME280;4062;49.844;8.120;2023-03-01T03:07:50;100234.97;;;14.19;53.65
8039;BME280;4062;49.844;8.120;2023-03-01T03:09:50;100223.47;;;14.18;53.71
8039;BME280;4062;49.844;8.120;2023-03-01T03:11:51;100225.28;;;14.18;53.60
8039;BME280;4062;49.844;8.120;2023-03-01T03:13:52;100217.25;;;14.19;53.61
8039;BME280;4062;49.844;8.120;2023-03-01T03:15:55;100221.69;;;14.19;53.68
8039;BME280;4062;49.844;8.120;2023-03-01T03:17:58;100209.31;;;14.18;53.62
8039;BME280;4062;49.844;8.120;2023-03-01T03:19:59;100213.69;;;14.19;53.51
8039;BME280;4062;49.844;8.120;2023-03-01T03:22:00;100211.03;;;14.19;53.64
8039;BME280;4062;49.844;8.120;2023-03-01T03:24:01;100212.84;;;14.18;53.50
8039;BME280;4062;49.844;8.120;2023-03-01T03:26:03;100209.31;;;14.18;53.56
8039;BME280;4062;49.844;8.120;2023-03-01T03:28:06;100201.34;;;14.18;53.51
8039;BME280;4062;49.844;8.120;2023-03-01T03:30:17;100199.59;;;14.17;53.56
8039;BME280;4062;49.844;8.120;2023-03-01T03:32:18;100207.53;;;14.18;53.57
8039;BME280;4062;49.844;8.120;2023-03-01T03:34:19;100204.88;;;14.18;53.74
8039;BME280;4062;49.844;8.120;2023-03-01T03:36:23;100200.47;;;14.17;53.52
8039;BME280;4062;49.844;8.120;2023-03-01T03:38:25;100197.81;;;14.17;53.39
8039;BME280;4062;49.844;8.120;2023-03-01T03:40:28;100202.25;;;14.17;53.34
8039;BME280;4062;49.844;8.120;2023-03-01T03:42:29;100197.81;;;14.17;53.61
8039;BME280;4062;49.844;8.120;2023-03-01T03:44:30;100204.91;;;14.17;53.43
8039;BME280;4062;49.844;8.120;2023-03-01T03:46:30;100199.59;;;14.17;54.01
8039;BME280;4062;49.844;8.120;2023-03-01T03:48:34;100200.47;;;14.17;53.58
8039;BME280;4062;49.844;8.120;2023-03-01T03:50:37;100193.41;;;14.16;53.49
8039;BME280;4062;49.844;8.120;2023-03-01T03:52:38;100190.75;;;14.16;53.53
8039;BME280;4062;49.844;8.120;2023-03-01T03:54:40;100185.44;;;14.16;53.69
8039;BME280;4062;49.844;8.120;2023-03-01T03:56:41;100183.69;;;14.15;53.53
8039;BME280;4062;49.844;8.120;2023-03-01T03:58:42;100183.66;;;14.17;53.52
8039;BME280;4062;49.844;8.120;2023-03-01T04:00:44;100180.13;;;14.16;53.65
8039;BME280;4062;49.844;8.120;2023-03-01T04:02:47;100175.69;;;14.17;53.60
8039;BME280;4062;49.844;8.120;2023-03-01T04:04:48;100174.78;;;14.16;53.53
8039;BME280;4062;49.844;8.120;2023-03-01T04:06:52;100173.06;;;14.15;53.63
8039;BME280;4062;49.844;8.120;2023-03-01T04:08:53;100172.19;;;14.15;53.63
8039;BME280;4062;49.844;8.120;2023-03-01T04:11:02;100165.06;;;14.15;53.70
8039;BME280;4062;49.844;8.120;2023-03-01T04:13:24;100169.53;;;14.15;53.71
8039;BME280;4062;49.844;8.120;2023-03-01T04:15:26;100172.19;;;14.15;53.30
8039;BME280;4062;49.844;8.120;2023-03-01T04:17:27;100172.19;;;14.15;53.57
8039;BME280;4062;49.844;8.120;2023-03-01T04:19:28;100172.19;;;14.15;53.75
8039;BME280;4062;49.844;8.120;2023-03-01T04:21:29;100177.50;;;14.15;53.42
8039;BME280;4062;49.844;8.120;2023-03-01T04:23:30;100174.84;;;14.15;53.62
8039;BME280;4062;49.844;8.120;2023-03-01T04:25:31;100180.16;;;14.15;53.58
8039;BME280;4062;49.844;8.120;2023-03-01T04:27:36;100176.63;;;14.14;53.68
8039;BME280;4062;49.844;8.120;2023-03-01T04:29:37;100175.75;;;14.14;53.64
8039;BME280;4062;49.844;8.120;2023-03-01T04:31:38;100179.28;;;14.14;53.63
8039;BME280;4062;49.844;8.120;2023-03-01T04:33:47;100180.16;;;14.15;53.54
8039;BME280;4062;49.844;8.120;2023-03-01T04:35:49;100179.28;;;14.14;53.50
8039;BME280;4062;49.844;8.120;2023-03-01T04:37:50;100175.75;;;14.14;53.69
8039;BME280;4062;49.844;8.120;2023-03-01T04:39:51;100176.66;;;14.13;53.72
8039;BME280;4062;49.844;8.120;2023-03-01T04:41:52;100172.25;;;14.13;53.61
8039;BME280;4062;49.844;8.120;2023-03-01T04:43:53;100185.53;;;14.13;53.71
8039;BME280;4062;49.844;8.120;2023-03-01T04:45:54;100179.31;;;14.13;53.68
8039;BME280;4062;49.844;8.120;2023-03-01T04:47:56;100179.31;;;14.13;53.63
8039;BME280;4062;49.844;8.120;2023-03-01T04:49:58;100181.97;;;14.13;53.50
8039;BME280;4062;49.844;8.120;2023-03-01T04:51:59;100178.47;;;14.12;53.55
8039;BME280;4062;49.844;8.120;2023-03-01T04:54:02;100181.97;;;14.13;53.70
8039;BME280;4062;49.844;8.120;2023-03-01T04:56:04;100182.88;;;14.13;53.68
8039;BME280;4062;49.844;8.120;2023-03-01T04:58:05;100181.13;;;14.12;53.65
8039;BME280;4062;49.844;8.120;2023-03-01T05:00:11;100178.47;;;14.12;53.71
8039;BME280;4062;49.844;8.120;2023-03-01T05:02:21;100171.41;;;14.11;53.57
8039;BME280;4062;49.844;8.120;2023-03-01T05:04:25;100177.56;;;14.12;53.65
8039;BME280;4062;49.844;8.120;2023-03-01T05:06:26;100174.00;;;14.13;53.55
8039;BME280;4062;49.844;8.120;2023-03-01T05:08:27;100178.47;;;14.11;53.67
8039;BME280;4062;49.844;8.120;2023-03-01T05:10:30;100177.56;;;14.12;53.69
8039;BME280;4062;49.844;8.120;2023-03-01T05:12:31;100177.56;;;14.12;53.60
8039;BME280;4062;49.844;8.120;2023-03-01T05:14:32;100170.50;;;14.11;53.69
8039;BME280;4062;49.844;8.120;2023-03-01T05:16:33;100172.25;;;14.12;53.60
8039;BME280;4062;49.844;8.120;2023-03-01T05:18:34;100176.72;;;14.11;53.67
8039;BME280;4062;49.844;8.120;2023-03-01T05:20:35;100168.75;;;14.11;53.77
8039;BME280;4062;49.844;8.120;2023-03-01T05:22:37;100173.16;;;14.11;53.63
8039;BME280;4062;49.844;8.120;2023-03-01T05:24:38;100167.84;;;14.11;53.71
8039;BME280;4062;49.844;8.120;2023-03-01T05:26:39;100173.16;;;14.11;53.83
8039;BME280;4062;49.844;8.120;2023-03-01T05:28:40;100168.75;;;14.11;53.69
8039;BME280;4062;49.844;8.120;2023-03-01T05:30:41;100171.41;;;14.10;53.77
8039;BME280;4062;49.844;8.120;2023-03-01T05:32:46;100170.50;;;14.11;53.65
8039;BME280;4062;49.844;8.120;2023-03-01T05:34:47;100174.06;;;14.10;53.66
8039;BME280;4062;49.844;8.120;2023-03-01T05:36:48;100177.63;;;14.10;53.70
8039;BME280;4062;49.844;8.120;2023-03-01T05:38:53;100177.63;;;14.10;53.80
8039;BME280;4062;49.844;8.120;2023-03-01T05:40:54;100176.72;;;14.11;53.74
8039;BME280;4062;49.844;8.120;2023-03-01T05:42:56;100175.03;;;14.09;53.72
8039;BME280;4062;49.844;8.120;2023-03-01T05:44:57;100173.22;;;14.09;53.59
8039;BME280;4062;49.844;8.120;2023-03-01T05:46:58;100177.69;;;14.09;53.74
8039;BME280;4062;49.844;8.120;2023-03-01T05:48:59;100175.88;;;14.09;53.65
8039;BME280;4062;49.844;8.120;2023-03-01T05:51:00;100172.38;;;14.09;53.75
8039;BME280;4062;49.844;8.120;2023-03-01T05:53:10;100170.56;;;14.09;53.89
8039;BME280;4062;49.844;8.120;2023-03-01T05:55:11;100174.13;;;14.08;53.69
8039;BME280;4062;49.844;8.120;2023-03-01T05:57:12;100177.69;;;14.09;53.83
8039;BME280;4062;49.844;8.120;2023-03-01T05:59:13;100181.25;;;14.07;53.67
8039;BME280;4062;49.844;8.120;2023-03-01T06:01:15;100175.03;;;14.09;53.82
8039;BME280;4062;49.844;8.120;2023-03-01T06:03:17;100176.78;;;14.08;53.71
8039;BME280;4062;49.844;8.120;2023-03-01T06:05:18;100174.13;;;14.08;53.69
8039;BME280;4062;49.844;8.120;2023-03-01T06:07:19;100167.97;;;14.07;53.79
8039;BME280;4062;49.844;8.120;2023-03-01T06:09:20;100175.03;;;14.09;53.79
8039;BME280;4062;49.844;8.120;2023-03-01T06:11:21;100174.06;;;14.10;53.73
8039;BME280;4062;49.844;8.120;2023-03-01T06:13:23;100172.31;;;14.10;53.81
8039;BME280;4062;49.844;8.120;2023-03-01T06:15:25;100173.16;;;14.11;53.92
8039;BME280;4062;49.844;8.120;2023-03-01T06:17:29;100169.59;;;14.12;53.82
8039;BME280;4062;49.844;8.120;2023-03-01T06:19:30;100171.31;;;14.14;53.92
8039;BME280;4062;49.844;8.120;2023-03-01T06:21:31;100169.47;;;14.16;53.89
8039;BME280;4062;49.844;8.120;2023-03-01T06:23:33;100176.53;;;14.17;53.79
8039;BME280;4062;49.844;8.120;2023-03-01T06:25:34;100172.97;;;14.18;53.86
8039;BME280;4062;49.844;8.120;2023-03-01T06:27:35;100176.47;;;14.20;53.87
8039;BME280;4062;49.844;8.120;2023-03-01T06:29:36;100168.44;;;14.22;53.83
8039;BME280;4062;49.844;8.120;2023-03-01T06:31:37;100168.38;;;14.25;53.87
8039;BME280;4062;49.844;8.120;2023-03-01T06:33:38;100165.66;;;14.27;53.93
8039;BME280;4062;49.844;8.120;2023-03-01T06:35:39;100167.38;;;14.29;53.80
8039;BME280;4062;49.844;8.120;2023-03-01T06:37:40;100170.00;;;14.31;53.91
8039;BME280;4062;49.844;8.120;2023-03-01T06:39:41;100162.84;;;14.33;53.95
8039;BME280;4062;49.844;8.120;2023-03-01T06:41:42;100171.66;;;14.35;54.03
8039;BME280;4062;49.844;8.120;2023-03-01T06:43:43;100158.31;;;14.36;54.00
8039;BME280;4062;49.844;8.120;2023-03-01T06:45:44;100160.03;;;14.37;53.91
8039;BME280;4062;49.844;8.120;2023-03-01T06:47:46;100161.78;;;14.38;53.77
8039;BME280;4062;49.844;8.120;2023-03-01T06:49:47;100159.13;;;14.40;53.78
8039;BME280;4062;49.844;8.120;2023-03-01T06:51:48;100159.97;;;14.41;53.95
8039;BME280;4062;49.844;8.120;2023-03-01T06:53:49;100158.16;;;14.41;53.80
8039;BME280;4062;49.844;8.120;2023-03-01T06:55:57;100163.47;;;14.43;53.95
8039;BME280;4062;49.844;8.120;2023-03-01T06:57:59;100159.06;;;14.42;53.87
8039;BME280;4062;49.844;8.120;2023-03-01T07:00:01;100162.56;;;14.42;53.78
8039;BME280;4062;49.844;8.120;2023-03-01T07:02:02;100164.31;;;14.43;53.81
8039;BME280;4062;49.844;8.120;2023-03-01T07:04:03;100158.16;;;14.43;53.74
8039;BME280;4062;49.844;8.120;2023-03-01T07:06:07;100157.25;;;14.42;53.89
8039;BME280;4062;49.844;8.120;2023-03-01T07:08:08;100155.50;;;14.43;53.76
8039;BME280;4062;49.844;8.120;2023-03-01T07:10:10;100165.22;;;14.44;53.75
8039;BME280;4062;49.844;8.120;2023-03-01T07:12:11;100164.31;;;14.43;53.97
8039;BME280;4062;49.844;8.120;2023-03-01T07:14:12;100163.47;;;14.43;53.94
8039;BME280;4062;49.844;8.120;2023-03-01T07:16:12;100168.78;;;14.43;53.94
8039;BME280;4062;49.844;8.120;2023-03-01T07:18:14;100167.88;;;14.44;53.66
8039;BME280;4062;49.844;8.120;2023-03-01T07:20:16;100158.16;;;14.43;53.81
8039;BME280;4062;49.844;8.120;2023-03-01T07:22:17;100154.59;;;14.42;53.89
8039;BME280;4062;49.844;8.120;2023-03-01T07:24:18;100151.94;;;14.42;53.78
8039;BME280;4062;49.844;8.120;2023-03-01T07:26:19;100152.84;;;14.43;53.87
8039;BME280;4062;49.844;8.120;2023-03-01T07:28:23;100148.44;;;14.42;53.74
8039;BME280;4062;49.844;8.120;2023-03-01T07:30:24;100151.94;;;14.42;53.78
8039;BME280;4062;49.844;8.120;2023-03-01T07:32:29;100144.84;;;14.43;53.85
8039;BME280;4062;49.844;8.120;2023-03-01T07:34:30;100144.88;;;14.41;53.85
8039;BME280;4062;49.844;8.120;2023-03-01T07:36:30;100141.38;;;14.41;53.72
8039;BME280;4062;49.844;8.120;2023-03-01T07:38:32;100139.63;;;14.39;53.80
8039;BME280;4062;49.844;8.120;2023-03-01T07:40:33;100140.50;;;14.40;53.84
8039;BME280;4062;49.844;8.120;2023-03-01T07:42:34;100144.03;;;14.41;53.72
8039;BME280;4062;49.844;8.120;2023-03-01T07:44:35;100145.84;;;14.38;53.71
8039;BME280;4062;49.844;8.120;2023-03-01T07:46:36;100143.19;;;14.38;53.71
8039;BME280;4062;49.844;8.120;2023-03-01T07:48:37;100145.84;;;14.38;53.61
8039;BME280;4062;49.844;8.120;2023-03-01T07:50:38;100143.19;;;14.38;53.45
8039;BME280;4062;49.844;8.120;2023-03-01T07:52:38;100144.09;;;14.37;53.67
8039;BME280;4062;49.844;8.120;2023-03-01T07:54:42;100150.31;;;14.38;53.50
8039;BME280;4062;49.844;8.120;2023-03-01T07:56:45;100145.84;;;14.38;53.70
8039;BME280;4062;49.844;8.120;2023-03-01T07:58:46;100148.56;;;14.37;53.68
8039;BME280;4062;49.844;8.120;2023-03-01T08:00:46;100134.38;;;14.36;53.61
8039;BME280;4062;49.844;8.120;2023-03-01T08:02:47;100133.50;;;14.36;53.54
8039;BME280;4062;49.844;8.120;2023-03-01T08:04:48;100130.00;;;14.35;53.43
8039;BME280;4062;49.844;8.120;2023-03-01T08:06:49;100129.13;;;14.35;53.64
8039;BME280;4062;49.844;8.120;2023-03-01T08:08:50;100128.19;;;14.36;53.67
8039;BME280;4062;49.844;8.120;2023-03-01T08:10:51;100131.78;;;14.35;53.47
8039;BME280;4062;49.844;8.120;2023-03-01T08:12:52;100134.44;;;14.35;53.62
8039;BME280;4062;49.844;8.120;2023-03-01T08:14:54;100138.88;;;14.34;53.60
8039;BME280;4062;49.844;8.120;2023-03-01T08:16:54;100136.22;;;14.34;53.60
8039;BME280;4062;49.844;8.120;2023-03-01T08:18:55;100139.78;;;14.33;53.60
8039;BME280;4062;49.844;8.120;2023-03-01T08:21:15;100135.34;;;14.34;53.42
8039;BME280;4062;49.844;8.120;2023-03-01T08:23:16;100133.59;;;14.33;53.35
8039;BME280;4062;49.844;8.120;2023-03-01T08:25:17;100130.06;;;14.32;53.42
8039;BME280;4062;49.844;8.120;2023-03-01T08:27:18;100129.19;;;14.32;53.51
8039;BME280;4062;49.844;8.120;2023-03-01T08:29:19;100123.88;;;14.32;53.58
8039;BME280;4062;49.844;8.120;2023-03-01T08:31:31;100129.19;;;14.32;53.58
8039;BME280;4062;49.844;8.120;2023-03-01T08:33:32;100131.00;;;14.31;53.58
8039;BME280;4062;49.844;8.120;2023-03-01T08:35:33;100124.81;;;14.31;53.62
8039;BME280;4062;49.844;8.120;2023-03-01T08:37:34;100125.66;;;14.31;53.49
8039;BME280;4062;49.844;8.120;2023-03-01T08:39:34;100120.34;;;14.31;53.50
8039;BME280;4062;49.844;8.120;2023-03-01T08:41:36;100122.09;;;14.32;53.44
8039;BME280;4062;49.844;8.120;2023-03-01T08:43:37;100114.06;;;14.34;53.60
8039;BME280;4062;49.844;8.120;2023-03-01T08:45:38;100120.28;;;14.34;53.71
8039;BME280;4062;49.844;8.120;2023-03-01T08:47:39;100120.28;;;14.34;53.63
8039;BME280;4062;49.844;8.120;2023-03-01T08:49:39;100114.91;;;14.36;53.73
8039;BME280;4062;49.844;8.120;2023-03-01T08:51:40;100124.63;;;14.37;53.65
8039;BME280;4062;49.844;8.120;2023-03-01T08:53:42;100110.44;;;14.38;53.86
8039;BME280;4062;49.844;8.120;2023-03-01T08:55:43;100105.09;;;14.38;53.79
8039;BME280;4062;49.844;8.120;2023-03-01T08:57:44;100099.75;;;14.39;53.77
8039;BME280;4062;49.844;8.120;2023-03-01T08:59:44;100097.09;;;14.39;53.59
8039;BME280;4062;49.844;8.120;2023-03-01T09:01:45;100094.41;;;14.39;53.65
8039;BME280;4062;49.844;8.120;2023-03-01T09:03:46;100099.75;;;14.39;53.86
8039;BME280;4062;49.844;8.120;2023-03-01T09:05:47;100093.50;;;14.41;53.77
8039;BME280;4062;49.844;8.120;2023-03-01T09:07:50;100082.88;;;14.41;53.76
8039;BME280;4062;49.844;8.120;2023-03-01T09:09:51;100085.53;;;14.41;53.62
8039;BME280;4062;49.844;8.120;2023-03-01T09:11:54;100080.22;;;14.41;53.76
8039;BME280;4062;49.844;8.120;2023-03-01T09:13:55;100080.22;;;14.41;53.71
8039;BME280;4062;49.844;8.120;2023-03-01T09:15:56;100081.97;;;14.42;53.59
8039;BME280;4062;49.844;8.120;2023-03-01T09:17:56;100087.28;;;14.42;53.59
8039;BME280;4062;49.844;8.120;2023-03-01T09:19:57;100084.63;;;14.42;53.59
8039;BME280;4062;49.844;8.120;2023-03-01T09:21:59;100082.88;;;14.41;53.37
8039;BME280;4062;49.844;8.120;2023-03-01T09:24:00;100082.03;;;14.40;53.75
8039;BME280;4062;49.844;8.120;2023-03-01T09:26:01;100080.28;;;14.39;53.63
8039;BME280;4062;49.844;8.120;2023-03-01T09:28:02;100081.13;;;14.39;53.44
8039;BME280;4062;49.844;8.120;2023-03-01T09:30:03;100082.94;;;14.39;53.52
8039;BME280;4062;49.844;8.120;2023-03-01T09:32:04;100078.47;;;14.39;53.50
8039;BME280;4062;49.844;8.120;2023-03-01T09:34:06;100074.97;;;14.39;53.38
8039;BME280;4062;49.844;8.120;2023-03-01T09:36:13;100077.63;;;14.39;53.42
8039;BME280;4062;49.844;8.120;2023-03-01T09:38:15;100081.13;;;14.39;53.38
8039;BME280;4062;49.844;8.120;2023-03-01T09:40:27;100077.63;;;14.39;53.43
8039;BME280;4062;49.844;8.120;2023-03-01T09:42:29;100084.69;;;14.38;53.43
8039;BME280;4062;49.844;8.120;2023-03-01T09:46:45;100076.72;;;14.38;53.48
8039;BME280;4062;49.844;8.120;2023-03-01T09:50:54;100075.88;;;14.36;53.33
8039;BME280;4062;49.844;8.120;2023-03-01T09:53:10;100072.31;;;14.37;53.48
8039;BME280;4062;49.844;8.120;2023-03-01T09:55:20;100070.56;;;14.36;53.42
8039;BME280;4062;49.844;8.120;2023-03-01T09:57:55;100073.22;;;14.38;53.38
8039;BME280;4062;49.844;8.120;2023-03-01T10:00:28;100065.22;;;14.38;53.42
8039;BME280;4062;49.844;8.120;2023-03-01T10:05:35;100054.63;;;14.36;53.36
8039;BME280;4062;49.844;8.120;2023-03-01T10:10:31;100060.84;;;14.37;53.33
8039;BME280;4062;49.844;8.120;2023-03-01T10:12:40;100061.69;;;14.37;53.44
8039;BME280;4062;49.844;8.120;2023-03-01T10:17:11;100044.94;;;14.35;53.38
8039;BME280;4062;49.844;8.120;2023-03-01T10:19:24;100041.38;;;14.35;53.47
8039;BME280;4062;49.844;8.120;2023-03-01T10:21:30;100044.94;;;14.35;53.49
8039;BME280;4062;49.844;8.120;2023-03-01T10:23:32;100039.63;;;14.34;53.30
8039;BME280;4062;49.844;8.120;2023-03-01T10:26:16;100039.63;;;14.35;53.50
8039;BME280;4062;49.844;8.120;2023-03-01T10:28:44;100031.66;;;14.34;53.37
8039;BME280;4062;49.844;8.120;2023-03-01T10:30:49;100021.94;;;14.34;53.67
8039;BME280;4062;49.844;8.120;2023-03-01T10:32:52;100024.59;;;14.34;53.61
8039;BME280;4062;49.844;8.120;2023-03-01T10:34:53;100028.16;;;14.33;53.49
8039;BME280;4062;49.844;8.120;2023-03-01T10:37:18;100028.16;;;14.33;53.48
8039;BME280;4062;49.844;8.120;2023-03-01T10:39:24;100016.59;;;14.34;53.41
8039;BME280;4062;49.844;8.120;2023-03-01T10:41:27;100013.94;;;14.34;53.62
8039;BME280;4062;49.844;8.120;2023-03-01T10:43:50;100012.16;;;14.35;53.34
8039;BME280;4062;49.844;8.120;2023-03-01T10:45:52;100012.97;;;14.37;53.52
8039;BME280;4062;49.844;8.120;2023-03-01T10:48:11;100010.31;;;14.37;53.63
8039;BME280;4062;49.844;8.120;2023-03-01T10:50:22;100010.25;;;14.38;53.45
8039;BME280;4062;49.844;8.120;2023-03-01T10:52:36;100009.34;;;14.39;53.51
8039;BME280;4062;49.844;8.120;2023-03-01T10:54:38;100009.34;;;14.39;53.51
8039;BME280;4062;49.844;8.120;2023-03-01T10:56:50;100011.09;;;14.41;53.62
8039;BME280;4062;49.844;8.120;2023-03-01T10:59:01;100007.53;;;14.42;53.57
8039;BME280;4062;49.844;8.120;2023-03-01T11:03:43;100003.06;;;14.42;53.68
8039;BME280;4062;49.844;8.120;2023-03-01T11:08:01;99987.13;;;14.42;53.56
8039;BME280;4062;49.844;8.120;2023-03-01T11:10:12;99994.19;;;14.43;53.69
8039;BME280;4062;49.844;8.120;2023-03-01T11:12:16;99989.78;;;14.42;53.45
8039;BME280;4062;49.844;8.120;2023-03-01T11:16:31;99980.94;;;14.42;53.57
8039;BME280;4062;49.844;8.120;2023-03-01T11:18:32;99978.28;;;14.42;53.58
8039;BME280;4062;49.844;8.120;2023-03-01T11:20:35;99966.75;;;14.41;53.52
8039;BME280;4062;49.844;8.120;2023-03-01T11:22:49;99963.19;;;14.42;53.56
8039;BME280;4062;49.844;8.120;2023-03-01T11:24:54;99969.41;;;14.41;53.49
8039;BME280;4062;49.844;8.120;2023-03-01T11:26:55;99972.06;;;14.41;53.51